Time;durP1;ratioP1;P1;durP2;ratioP2;P2;SDS_P1;SDS_P2;PMS_P1;PMS_P2;Temp;Humidity;BMP_temperature;BMP_pressure;BME280_temperature;BME280_humidity;BME280_pressure;Samples;Min_cycle;Max_cycle;Signal;HPM_P1;HPM_P2
2022/12/06 00:01:40;;;;;;;7.32;4.53;;;;;;;20.00;57.55;101201.22;5081686;28;20052;-74
2022/12/06 00:04:11;;;;;;;5.95;4.70;;;;;;;19.99;57.27;101198.66;5075129;28;20380;-74
2022/12/06 00:06:50;;;;;;;6.78;4.78;;;;;;;19.98;56.87;101208.56;5075642;28;20045;-74
2022/12/06 00:09:25;;;;;;;6.45;5.10;;;;;;;19.98;57.10;101199.66;5076066;28;20051;-74
2022/12/06 00:11:54;;;;;;;6.60;4.78;;;;;;;19.97;56.51;101196.13;5076002;28;20048;-73
2022/12/06 00:14:23;;;;;;;6.22;5.00;;;;;;;19.98;56.80;101194.28;5075529;28;20060;-73
2022/12/06 00:16:53;;;;;;;6.93;4.80;;;;;;;19.98;56.54;101195.13;5076255;28;20048;-73
2022/12/06 00:19:23;;;;;;;7.32;5.00;;;;;;;19.97;56.47;101195.25;5057920;28;20048;-73
2022/12/06 00:21:53;;;;;;;6.10;4.72;;;;;;;19.96;56.35;101201.59;5077357;28;20498;-74
2022/12/06 00:24:22;;;;;;;7.75;5.28;;;;;;;19.96;56.59;101204.28;5094544;28;20048;-74
2022/12/06 00:26:51;;;;;;;7.13;4.65;;;;;;;19.95;56.29;101192.69;5095506;28;20518;-74
2022/12/06 00:29:22;;;;;;;6.93;4.28;;;;;;;19.95;56.18;101197.22;5094148;28;20040;-74
2022/12/06 00:31:50;;;;;;;5.43;3.90;;;;;;;19.95;56.58;101199.91;5094998;28;20503;-73
2022/12/06 00:34:19;;;;;;;6.20;4.25;;;;;;;19.94;55.64;101201.75;5095207;28;20399;-74
2022/12/06 00:36:47;;;;;;;5.63;3.90;;;;;;;19.96;56.25;101193.53;5095049;28;20044;-73
2022/12/06 00:39:17;;;;;;;6.25;4.40;;;;;;;19.94;56.32;101188.31;5094957;28;20060;-73
2022/12/06 00:41:45;;;;;;;7.05;4.53;;;;;;;19.95;56.41;101195.38;5094294;28;20055;-74
2022/12/06 00:44:13;;;;;;;4.50;3.88;;;;;;;19.95;56.69;101199.91;5094803;28;20047;-73
2022/12/06 00:46:41;;;;;;;6.35;4.25;;;;;;;19.93;56.47;101193.78;5093060;28;20067;-73
2022/12/06 00:49:09;;;;;;;5.45;4.25;;;;;;;19.93;55.23;101193.78;5095663;28;20044;-74
2022/12/06 00:51:37;;;;;;;6.65;4.22;;;;;;;19.94;56.17;101190.16;5095204;28;20044;-74
2022/12/06 00:54:07;;;;;;;6.30;4.18;;;;;;;19.92;56.07;101194.78;5094721;28;20052;-74
2022/12/06 00:56:35;;;;;;;8.48;5.45;;;;;;;19.92;55.24;101192.09;5109673;28;20047;-74
2022/12/06 00:59:04;;;;;;;5.60;4.15;;;;;;;19.92;55.77;101195.63;5094507;28;20048;-73
2022/12/06 01:01:34;;;;;;;6.03;4.40;;;;;;;19.92;55.63;101192.94;5109898;28;20067;-74
2022/12/06 01:04:05;;;;;;;6.43;4.85;;;;;;;19.92;55.77;101194.78;5094592;28;20054;-73
2022/12/06 01:06:36;;;;;;;5.47;4.05;;;;;;;19.92;56.07;101197.47;5094706;28;20046;-73
2022/12/06 01:09:07;;;;;;;5.75;3.72;;;;;;;19.92;56.04;101192.09;5094760;28;20044;-73
2022/12/06 01:11:36;;;;;;;5.28;3.72;;;;;;;19.91;55.43;101195.75;5094437;28;20048;-74
2022/12/06 01:14:04;;;;;;;5.63;3.95;;;;;;;19.92;55.31;101194.78;5093213;28;20043;-74
2022/12/06 01:16:33;;;;;;;5.68;3.97;;;;;;;19.90;55.71;101197.59;5093487;28;20483;-74
2022/12/06 01:19:02;;;;;;;5.88;4.13;;;;;;;19.91;55.65;101203.81;5093150;28;20051;-73
2022/12/06 01:21:30;;;;;;;6.57;3.70;;;;;;;19.90;55.79;101199.44;5093973;28;20501;-73
2022/12/06 01:23:57;;;;;;;5.57;4.03;;;;;;;19.89;55.89;101197.72;5093479;28;20036;-74
2022/12/06 01:26:27;;;;;;;6.65;4.57;;;;;;;19.90;55.53;101188.69;5093648;28;20043;-74
2022/12/06 01:28:56;;;;;;;5.80;3.97;;;;;;;19.89;56.45;101195.91;5094698;28;20044;-74
2022/12/06 01:31:24;;;;;;;5.47;4.35;;;;;;;19.89;57.01;101192.34;5094265;28;20048;-74
2022/12/06 01:33:52;;;;;;;5.28;3.75;;;;;;;19.88;55.88;101186.13;5094108;28;20047;-74
2022/12/06 01:36:22;;;;;;;5.05;3.50;;;;;;;19.89;56.72;101195.03;5092575;28;20059;-74
2022/12/06 01:38:57;;;;;;;6.13;3.92;;;;;;;19.89;56.32;101195.03;5093915;28;20062;-74
2022/12/06 01:41:26;;;;;;;4.38;3.60;;;;;;;19.88;56.79;101193.31;5092532;28;20056;-74
2022/12/06 01:43:54;;;;;;;5.68;4.00;;;;;;;19.88;56.42;101190.63;5094153;28;20044;-74
2022/12/06 01:46:33;;;;;;;4.93;3.58;;;;;;;19.88;56.77;101190.63;5094055;28;20055;-74
2022/12/06 01:49:20;;;;;;;5.65;4.00;;;;;;;19.87;57.07;101189.78;5093705;28;20071;-74
2022/12/06 01:51:56;;;;;;;4.70;3.28;;;;;;;19.86;56.97;101188.09;5093605;28;20048;-74
2022/12/06 01:54:24;;;;;;;4.72;3.13;;;;;;;19.86;56.49;101192.63;5092481;28;20055;-73
2022/12/06 01:56:54;;;;;;;5.20;3.70;;;;;;;19.86;56.80;101193.47;5093841;28;20043;-74
2022/12/06 01:59:24;;;;;;;6.00;3.70;;;;;;;19.86;57.04;101189.94;5093859;28;20410;-74
2022/12/06 02:01:52;;;;;;;5.90;4.25;;;;;;;19.84;56.78;101195.41;5093793;28;20044;-74
2022/12/06 02:04:21;;;;;;;4.93;3.30;;;;;;;19.84;57.15;101195.41;5093793;28;20047;-74
2022/12/06 02:06:51;;;;;;;5.55;3.67;;;;;;;19.85;57.02;101190.88;5093945;28;20035;-74
2022/12/06 02:09:19;;;;;;;5.30;4.00;;;;;;;19.84;56.13;101184.66;5093859;28;20491;-73
2022/12/06 02:11:47;;;;;;;5.28;4.05;;;;;;;19.84;56.85;101183.81;5093774;28;20043;-74
2022/12/06 02:14:18;;;;;;;6.10;3.90;;;;;;;19.84;56.32;101181.13;5094112;28;20048;-74
2022/12/06 02:17:27;;;;;;;4.90;3.38;;;;;;;19.83;56.41;101169.53;5093876;28;20051;-74
2022/12/06 02:20:00;;;;;;;4.97;3.47;;;;;;;19.83;56.36;101176.75;5093748;28;20052;-74
2022/12/06 02:22:46;;;;;;;7.30;3.90;;;;;;;19.82;56.16;101183.94;5093350;28;20055;-74
2022/12/06 02:25:50;;;;;;;5.32;3.88;;;;;;;19.82;55.86;101181.25;5092827;28;20047;-74
2022/12/06 02:28:36;;;;;;;4.70;3.58;;;;;;;19.82;55.78;101183.09;5095971;28;20054;-73
2022/12/06 02:31:29;;;;;;;4.72;3.65;;;;;;;19.82;56.58;101178.56;5098440;28;20052;-73
2022/12/06 02:34:02;;;;;;;4.65;3.80;;;;;;;19.81;56.70;101171.50;5097524;28;20483;-74
2022/12/06 02:36:54;;;;;;;5.28;3.75;;;;;;;19.81;56.59;101170.63;5097079;28;20048;-74
2022/12/06 02:39:29;;;;;;;4.57;3.75;;;;;;;19.81;56.88;101171.50;5095694;28;20415;-74
2022/12/06 02:42:13;;;;;;;4.57;3.65;;;;;;;19.80;56.80;101175.16;5097672;28;20044;-74
2022/12/06 02:44:45;;;;;;;4.50;3.63;;;;;;;19.81;56.39;101167.94;5097247;28;20040;-74
2022/12/06 02:47:15;;;;;;;5.32;3.53;;;;;;;19.80;56.54;101169.78;5097922;28;20047;-74
2022/12/06 02:49:48;;;;;;;5.45;3.92;;;;;;;19.80;56.36;101166.25;5097980;28;20093;-74
2022/12/06 02:52:19;;;;;;;;;;;;;;;19.80;56.32;101163.56;5098076;28;20044;-74
2022/12/06 02:54:48;;;;;;;5.00;3.70;;;;;;;19.80;56.04;101168.91;5097320;28;19923;-74
2022/12/06 02:57:18;;;;;;;6.00;4.38;;;;;;;19.80;56.67;101174.28;5096883;28;20372;-73
2022/12/06 02:59:53;;;;;;;6.93;4.15;;;;;;;19.78;56.34;101166.38;5097204;28;20044;-74
2022/12/06 03:02:21;;;;;;;4.40;3.05;;;;;;;19.78;56.42;101169.06;5095510;28;20047;-74
2022/12/06 03:05:07;;;;;;;5.43;3.97;;;;;;;19.78;56.46;101162.84;5096463;28;20044;-74
2022/12/06 03:07:44;;;;;;;6.40;4.10;;;;;;;19.78;56.35;101163.69;5097006;28;20048;-74
2022/12/06 03:10:28;;;;;;;5.63;4.32;;;;;;;19.77;56.12;101156.63;5112901;28;20056;-74
2022/12/06 03:13:11;;;;;;;6.47;4.80;;;;;;;19.76;55.37;101149.50;5097540;28;20044;-76
2022/12/06 03:15:51;;;;;;;6.10;4.18;;;;;;;19.76;56.33;101150.38;5098278;28;20075;-76
2022/12/06 03:18:30;;;;;;;4.82;3.80;;;;;;;19.76;56.25;101153.06;5097627;28;20518;-77
2022/12/06 03:21:07;;;;;;;6.18;4.10;;;;;;;19.76;56.02;101149.50;5097441;28;20506;-77
2022/12/06 03:23:40;;;;;;;5.65;3.95;;;;;;;19.76;55.46;101145.00;5097376;28;20055;-77
2022/12/06 03:26:12;;;;;;;5.40;4.30;;;;;;;19.76;55.41;101141.47;5092148;28;20472;-76
2022/12/06 03:28:41;;;;;;;5.65;3.92;;;;;;;19.76;55.94;101147.69;5096720;28;20044;-76
2022/12/06 03:31:11;;;;;;;7.15;4.05;;;;;;;19.75;56.02;101137.06;5095705;28;20058;-76
2022/12/06 03:33:48;;;;;;;4.75;3.90;;;;;;;19.76;55.82;101139.63;5097394;28;20059;-76
2022/12/06 03:36:17;;;;;;;5.30;4.28;;;;;;;19.76;55.46;101136.94;5096114;28;20064;-77
2022/12/06 03:38:57;;;;;;;4.82;3.78;;;;;;;19.76;55.97;101128.88;5097568;28;20055;-76
2022/12/06 03:41:29;;;;;;;4.90;3.67;;;;;;;19.76;55.79;101142.31;5097904;28;20059;-77
2022/12/06 03:43:58;;;;;;;7.60;4.27;;;;;;;19.76;55.67;101136.94;5097350;28;20051;-76
2022/12/06 03:46:37;;;;;;;5.93;3.33;;;;;;;19.77;55.83;101137.81;5095751;28;20051;-76
2022/12/06 03:49:13;;;;;;;5.80;4.10;;;;;;;19.77;55.58;101132.44;5096965;28;20051;-75
2022/12/06 03:51:42;;;;;;;6.75;4.32;;;;;;;19.77;55.43;101143.19;5097088;28;20048;-76
2022/12/06 03:54:10;;;;;;;6.45;4.22;;;;;;;19.75;55.29;101143.28;5096803;28;20044;-76
2022/12/06 03:56:37;;;;;;;5.63;4.15;;;;;;;19.74;55.05;101136.22;5096184;28;20047;-76
2022/12/06 03:59:09;;;;;;;5.75;4.72;;;;;;;19.75;55.20;101137.06;5096427;28;20047;-76
2022/12/06 04:01:37;;;;;;;5.82;3.97;;;;;;;19.75;55.09;101131.69;5096476;28;20048;-76
2022/12/06 04:04:05;;;;;;;6.55;4.45;;;;;;;19.73;55.38;101129.16;5095284;28;20040;-76
2022/12/06 04:06:32;;;;;;;6.47;4.57;;;;;;;19.74;55.22;101132.69;5095634;28;20048;-76
2022/12/06 04:11:46;;;;;;;5.72;4.57;;;;;;;19.74;55.10;101140.75;5096946;28;20044;-76
2022/12/06 04:14:13;;;;;;;5.22;3.90;;;;;;;19.73;54.93;101125.63;5095598;28;20043;-76
2022/12/06 04:19:27;;;;;;;5.28;4.00;;;;;;;19.73;55.14;101129.16;5096054;28;20044;-76
2022/12/06 04:24:40;;;;;;;6.45;4.20;;;;;;;19.74;54.89;101130.00;5096186;28;20048;-76
2022/12/06 04:40:56;;;;;;;5.55;4.43;;;;;;;19.73;54.68;101131.84;5095717;28;20048;-76
2022/12/06 04:43:42;;;;;;;6.38;4.65;;;;;;;19.73;54.63;101131.00;5095852;28;20055;-76
2022/12/06 04:46:12;;;;;;;5.50;3.75;;;;;;;19.73;54.67;101131.84;5075631;28;20399;-76
2022/12/06 04:48:40;;;;;;;6.45;4.50;;;;;;;19.72;54.57;101124.75;5074766;28;20048;-76
2022/12/06 04:51:11;;;;;;;6.32;4.35;;;;;;;19.72;54.29;101129.25;5074602;28;20044;-76
2022/12/06 04:53:39;;;;;;;5.95;4.65;;;;;;;19.72;54.40;101127.41;5075760;28;20052;-76
2022/12/06 04:56:07;;;;;;;5.20;4.53;;;;;;;19.72;54.26;101127.41;5075847;28;20055;-75
2022/12/06 04:58:34;;;;;;;5.70;4.05;;;;;;;19.73;54.29;101128.31;5074529;28;20041;-76
2022/12/06 05:01:02;;;;;;;5.30;4.38;;;;;;;19.72;54.38;101124.75;5075499;28;20510;-76
2022/12/06 05:03:29;;;;;;;8.02;4.50;;;;;;;19.72;54.01;101126.56;5076127;28;20522;-75
2022/12/06 05:05:56;;;;;;;5.90;4.57;;;;;;;19.72;54.39;101119.38;5075723;28;20052;-76
2022/12/06 05:08:24;;;;;;;5.22;4.20;;;;;;;19.72;54.01;101127.41;5075990;28;20037;-76
2022/12/06 05:10:52;;;;;;;6.07;4.28;;;;;;;19.71;54.06;101131.09;5074547;28;20044;-76
2022/12/06 05:13:19;;;;;;;6.13;4.78;;;;;;;19.70;54.09;101132.09;5075405;28;20051;-76
2022/12/06 05:15:52;;;;;;;5.53;4.25;;;;;;;19.72;54.23;101129.25;5075243;28;20055;-76
2022/12/06 05:18:20;;;;;;;6.85;5.63;;;;;;;19.71;54.11;101127.56;5086353;28;20047;-76
2022/12/06 05:20:48;;;;;;;5.60;4.45;;;;;;;19.70;54.04;101129.41;5095374;28;20048;-76
2022/12/06 05:23:16;;;;;;;5.07;4.07;;;;;;;19.72;53.96;101137.31;5095255;28;20047;-76
2022/12/06 05:25:43;;;;;;;5.47;4.53;;;;;;;19.70;54.09;101137.47;5095286;28;20055;-75
2022/12/06 05:28:10;;;;;;;8.40;4.70;;;;;;;19.70;54.12;101129.41;5091217;28;20055;-76
2022/12/06 05:30:38;;;;;;;6.15;4.65;;;;;;;19.69;53.93;101135.75;5094625;28;20067;-76
2022/12/06 05:33:05;;;;;;;6.40;5.35;;;;;;;19.69;54.06;101140.28;5095135;28;20043;-76
2022/12/06 05:35:32;;;;;;;5.22;4.18;;;;;;;19.69;54.00;101132.22;5094381;28;20048;-76
2022/12/06 05:37:59;;;;;;;4.90;3.97;;;;;;;19.68;53.63;101146.59;5093645;28;20051;-76
2022/12/06 05:40:27;;;;;;;5.65;4.35;;;;;;;19.69;54.01;101145.66;5094698;28;20052;-76
2022/12/06 05:42:54;;;;;;;5.57;3.92;;;;;;;19.69;53.62;101149.19;5095164;28;20044;-77
2022/12/06 05:45:22;;;;;;;5.18;3.88;;;;;;;19.69;53.75;101145.66;5094895;28;20051;-76
2022/12/06 05:47:50;;;;;;;5.35;3.83;;;;;;;19.68;53.91;101147.47;5095786;28;20036;-76
2022/12/06 05:50:18;;;;;;;6.15;4.65;;;;;;;19.69;53.88;101145.66;5095182;28;20052;-76
2022/12/06 05:52:47;;;;;;;5.93;4.43;;;;;;;19.70;53.77;101141.97;5096453;28;20475;-76
2022/12/06 05:55:14;;;;;;;6.70;4.60;;;;;;;19.68;53.54;101149.28;5095927;28;20052;-76
2022/12/06 05:57:41;;;;;;;5.78;4.55;;;;;;;19.70;53.71;101144.66;5096294;28;20036;-76
2022/12/06 06:00:14;;;;;;;4.72;3.95;;;;;;;19.69;53.58;101142.97;5094530;28;20055;-77
2022/12/06 06:02:41;;;;;;;5.10;4.10;;;;;;;19.68;53.87;101142.09;5093018;28;20044;-76
2022/12/06 06:05:09;;;;;;;7.05;4.68;;;;;;;19.69;53.63;101137.59;5093879;28;20047;-77
2022/12/06 06:07:36;;;;;;;5.57;4.45;;;;;;;19.68;53.50;101142.09;5093413;28;20044;-77
2022/12/06 06:10:05;;;;;;;6.18;4.75;;;;;;;19.67;53.54;101136.84;5093988;28;20044;-77
2022/12/06 06:12:33;;;;;;;7.82;4.95;;;;;;;19.67;53.49;101145.75;5093732;28;20379;-77
2022/12/06 06:15:00;;;;;;;4.93;3.70;;;;;;;19.67;53.71;101143.06;5094380;28;20487;-77
2022/12/06 06:17:27;;;;;;;5.93;4.15;;;;;;;19.67;54.12;101144.91;5094806;28;20055;-77
2022/12/06 06:19:54;;;;;;;4.55;3.95;;;;;;;19.68;53.95;101150.16;5094559;28;20040;-77
2022/12/06 06:22:23;;;;;;;5.53;4.43;;;;;;;19.68;54.01;101149.28;5095000;28;20048;-76
2022/12/06 06:24:50;;;;;;;6.50;4.68;;;;;;;19.66;53.67;101146.75;5094560;28;20051;-76
2022/12/06 06:27:17;;;;;;;6.18;4.50;;;;;;;19.66;53.50;101146.75;5094514;28;20391;-76
2022/12/06 06:29:45;;;;;;;5.95;5.05;;;;;;;19.65;53.34;101150.41;5093145;28;20040;-76
2022/12/06 06:32:12;;;;;;;5.70;4.65;;;;;;;19.65;53.29;101155.78;5094136;28;20049;-76
2022/12/06 06:34:40;;;;;;;5.93;4.60;;;;;;;19.64;53.36;101148.69;5094411;28;20044;-76
2022/12/06 06:37:07;;;;;;;5.75;4.32;;;;;;;19.64;53.34;101146.00;5095140;28;20044;-80
2022/12/06 06:39:34;;;;;;;6.40;3.92;;;;;;;19.64;53.69;101153.22;5094082;28;20041;-77
2022/12/06 06:42:02;;;;;;;5.05;4.22;;;;;;;19.62;53.29;101147.97;5094555;28;20059;-77
2022/12/06 06:44:29;;;;;;;4.80;3.83;;;;;;;19.63;53.22;101152.38;5094035;28;20044;-76
2022/12/06 06:46:56;;;;;;;5.72;4.30;;;;;;;19.63;53.46;101146.16;5093994;28;20048;-76
2022/12/06 06:49:24;;;;;;;6.03;4.22;;;;;;;19.62;53.37;101153.34;5093927;28;20040;-77
2022/12/06 06:51:51;;;;;;;5.32;4.30;;;;;;;19.62;53.17;101150.66;5094346;28;20071;-76
2022/12/06 06:54:18;;;;;;;5.05;3.95;;;;;;;19.62;53.25;101152.50;5094090;28;20048;-76
2022/12/06 06:56:46;;;;;;;6.28;4.80;;;;;;;19.61;53.28;101151.66;5093981;28;20050;-76
2022/12/06 06:59:13;;;;;;;5.60;4.65;;;;;;;19.61;53.00;101145.41;5094263;28;20048;-76
2022/12/06 07:01:40;;;;;;;6.88;4.88;;;;;;;19.61;52.99;101150.78;5093432;28;20051;-76
2022/12/06 07:04:08;;;;;;;7.38;4.65;;;;;;;19.61;52.96;101157.03;5092255;28;20051;-76
2022/12/06 07:06:35;;;;;;;6.35;4.72;;;;;;;19.61;52.97;101161.50;5109109;28;20048;-76
2022/12/06 07:09:02;;;;;;;6.32;4.90;;;;;;;19.60;53.48;101157.09;5094005;28;20063;-76
2022/12/06 07:11:30;;;;;;;5.38;4.80;;;;;;;19.61;53.04;101153.47;5094195;28;20048;-76
2022/12/06 07:13:57;;;;;;;4.85;3.85;;;;;;;19.61;53.20;101161.50;5095160;28;20058;-76
2022/12/06 07:16:25;;;;;;;5.20;4.28;;;;;;;19.60;53.53;101157.94;5098193;28;20044;-76
2022/12/06 07:18:52;;;;;;;4.95;3.90;;;;;;;19.60;53.35;101165.16;5097338;28;20036;-76
2022/12/06 07:21:24;;;;;;;5.00;4.13;;;;;;;19.60;53.41;101174.06;5096150;28;20340;-76
2022/12/06 07:23:51;;;;;;;6.43;4.25;;;;;;;19.59;53.11;101166.13;5097664;28;20055;-76
2022/12/06 07:26:21;;;;;;;5.10;4.25;;;;;;;19.60;53.41;101165.16;5095862;28;20048;-76
2022/12/06 07:28:49;;;;;;;6.40;4.35;;;;;;;19.59;53.44;101161.63;5096596;28;20044;-76
2022/12/06 07:31:22;;;;;;;5.15;4.13;;;;;;;19.60;53.52;101166.00;5095400;28;20051;-76
2022/12/06 07:33:55;;;;;;;6.00;4.07;;;;;;;19.58;53.47;101157.22;5096948;28;20048;-76
2022/12/06 07:36:23;;;;;;;4.40;3.40;;;;;;;19.60;53.57;101166.00;5096643;28;20044;-76
2022/12/06 07:38:54;;;;;;;6.00;4.57;;;;;;;19.59;53.17;101163.47;5095846;28;20526;-77
2022/12/06 07:47:04;;;;;;;5.15;4.45;;;;;;;19.58;53.37;101167.97;5096175;28;20055;-76
2022/12/06 07:49:31;;;;;;;6.03;4.35;;;;;;;19.58;53.17;101167.97;5096421;28;20047;-76
2022/12/06 07:51:58;;;;;;;5.70;4.13;;;;;;;19.58;53.19;101167.97;5096565;28;20048;-76
2022/12/06 07:54:26;;;;;;;4.82;4.07;;;;;;;19.58;53.48;101170.66;5096327;28;20495;-76
2022/12/06 07:56:55;;;;;;;5.72;4.03;;;;;;;19.59;53.21;101175.03;5097525;28;20399;-76
2022/12/06 07:59:23;;;;;;;7.28;5.25;;;;;;;19.59;53.19;101169.69;5096158;28;20051;-76
2022/12/06 08:01:51;;;;;;;6.60;4.25;;;;;;;19.59;53.02;101158.94;5094843;28;20059;-76
2022/12/06 08:04:19;;;;;;;5.45;4.00;;;;;;;19.60;53.22;101170.53;5095926;28;20048;-76
2022/12/06 08:06:46;;;;;;;5.65;4.05;;;;;;;19.60;53.31;101168.69;5096329;28;20052;-76
2022/12/06 08:09:14;;;;;;;5.13;3.95;;;;;;;19.60;53.21;101166.00;5096563;28;20048;-76
2022/12/06 08:11:41;;;;;;;7.07;4.78;;;;;;;19.61;53.39;101173.13;5096520;28;20047;-76
2022/12/06 08:14:10;;;;;;;7.47;3.95;;;;;;;19.61;53.34;101167.78;5095091;28;20048;-77
2022/12/06 08:16:39;;;;;;;8.27;4.85;;;;;;;19.62;53.32;101171.31;5095755;28;20052;-77
2022/12/06 08:19:07;;;;;;;5.40;3.80;;;;;;;19.63;53.28;101170.31;5095427;28;20055;-76
2022/12/06 08:21:35;;;;;;;6.53;4.25;;;;;;;19.63;53.14;101171.16;5095602;28;20055;-77
2022/12/06 08:24:03;;;;;;;5.43;4.15;;;;;;;19.63;52.86;101162.25;5094938;28;20055;-76
2022/12/06 08:26:30;;;;;;;10.35;4.57;;;;;;;19.63;52.81;101165.78;5094837;28;20490;-77
2022/12/06 08:28:59;;;;;;;8.32;3.97;;;;;;;19.64;52.97;101170.19;5095130;28;20044;-76
2022/12/06 08:31:28;;;;;;;9.25;4.22;;;;;;;19.63;52.87;101165.78;5092309;28;20044;-76
2022/12/06 08:33:56;;;;;;;10.10;7.13;;;;;;;19.62;50.55;101164.09;5095628;28;20037;-76
2022/12/06 08:36:24;;;;;;;9.02;8.00;;;;;;;19.55;49.01;101164.69;5093603;28;20059;-76
2022/12/06 08:38:51;;;;;;;10.18;7.93;;;;;;;19.46;47.80;101167.13;5095276;28;20043;-76
2022/12/06 08:44:12;;;;;;;11.90;8.55;;;;;;;19.30;47.71;101173.88;5080003;28;20791;-76
2022/12/06 08:46:39;;;;;;;10.25;8.80;;;;;;;19.24;47.45;101176.09;5095889;28;20394;-76
2022/12/06 08:49:07;;;;;;;10.57;8.73;;;;;;;19.21;47.28;101178.16;5095213;28;20040;-76
2022/12/06 08:51:35;;;;;;;10.32;8.68;;;;;;;19.17;47.46;101180.22;5095166;28;20389;-76
2022/12/06 08:54:03;;;;;;;11.77;9.13;;;;;;;19.15;47.19;101179.47;5094945;28;20399;-75
2022/12/06 08:56:31;;;;;;;11.73;8.73;;;;;;;19.10;46.85;101184.38;5092824;28;20078;-76
2022/12/06 08:58:58;;;;;;;10.65;8.15;;;;;;;19.11;47.41;101180.69;5095381;28;20044;-76
2022/12/06 09:01:28;;;;;;;9.18;7.35;;;;;;;19.15;48.37;101182.16;5095011;28;20047;-76
2022/12/06 09:04:06;;;;;;;6.80;5.45;;;;;;;19.21;49.12;101181.69;5095176;28;20040;-76
2022/12/06 09:06:35;;;;;;;6.72;4.72;;;;;;;19.26;49.42;101189.38;5094515;28;20051;-77
2022/12/06 09:09:02;;;;;;;6.90;4.70;;;;;;;19.31;49.68;101191.69;5094825;28;20534;-76
2022/12/06 09:11:30;;;;;;;5.65;4.55;;;;;;;19.34;49.98;101181.56;5109924;28;20052;-76
2022/12/06 09:13:57;;;;;;;5.65;4.57;;;;;;;19.37;49.85;101175.94;5095088;28;20051;-77
2022/12/06 09:16:24;;;;;;;5.35;3.97;;;;;;;19.41;50.00;101176.56;5095294;28;20555;-76
2022/12/06 09:18:52;;;;;;;5.85;3.85;;;;;;;19.44;50.08;101178.97;5094213;28;20414;-76
2022/12/06 09:21:24;;;;;;;6.35;3.78;;;;;;;19.46;50.03;101179.72;5093755;28;20048;-76
2022/12/06 09:23:55;;;;;;;5.22;3.33;;;;;;;19.50;50.08;101186.53;5093988;28;20051;-77
2022/12/06 09:26:24;;;;;;;4.20;3.22;;;;;;;19.51;49.96;101177.50;5094601;28;20044;-76
2022/12/06 09:28:53;;;;;;;6.10;3.67;;;;;;;19.52;49.95;101168.47;5095042;28;20398;-76
2022/12/06 09:31:20;;;;;;;4.82;3.13;;;;;;;19.53;50.13;101175.56;5094147;28;20040;-76
2022/12/06 09:33:48;;;;;;;4.70;3.17;;;;;;;19.54;50.25;101171.91;5094272;28;20499;-76
2022/12/06 09:36:27;;;;;;;4.78;3.13;;;;;;;19.56;50.24;101179.81;5095113;28;20048;-76
2022/12/06 09:39:00;;;;;;;4.32;3.10;;;;;;;19.57;50.18;101177.03;5094608;28;20048;-76
2022/12/06 09:42:02;;;;;;;5.57;3.42;;;;;;;19.58;50.24;101180.56;5095303;28;20468;-77
2022/12/06 09:44:38;;;;;;;4.10;3.10;;;;;;;19.59;50.20;101185.78;5072352;28;20060;-76
2022/12/06 09:47:20;;;;;;;4.53;2.60;;;;;;;19.59;50.14;101183.09;5072507;28;20073;-76
2022/12/06 09:50:02;;;;;;;3.88;2.60;;;;;;;19.59;50.03;101176.88;5072413;28;20056;-76
2022/12/06 09:52:44;;;;;;;4.07;3.10;;;;;;;19.59;50.07;101169.69;5072156;28;20063;-77
2022/12/06 09:55:21;;;;;;;4.80;3.15;;;;;;;19.58;49.77;101173.34;5072416;28;20061;-76
2022/12/06 09:58:00;;;;;;;6.93;3.10;;;;;;;19.59;50.24;101172.38;5072034;28;20439;-76
2022/12/06 10:00:40;;;;;;;7.63;3.20;;;;;;;19.61;50.71;101174.94;5071859;28;20416;-76
2022/12/06 10:03:13;;;;;;;3.78;2.58;;;;;;;19.61;50.77;101173.13;5071408;28;20056;-76
2022/12/06 10:05:46;;;;;;;3.53;2.60;;;;;;;19.61;50.04;101162.41;5053941;28;20052;-76
2022/12/06 10:08:24;;;;;;;4.88;3.08;;;;;;;19.62;49.82;101160.56;5072390;28;20056;-76
2022/12/06 10:11:07;;;;;;;7.63;3.85;;;;;;;19.61;49.36;101156.16;5055276;28;20056;-76
2022/12/06 10:13:38;;;;;;;4.10;3.03;;;;;;;19.61;49.44;101151.66;5071170;28;20059;-76
2022/12/06 10:16:39;;;;;;;4.68;3.03;;;;;;;19.62;49.53;101163.25;5071024;28;20071;-76
2022/12/06 10:19:47;;;;;;;4.13;2.75;;;;;;;19.61;49.36;101153.47;5011513;28;20414;-76
2022/12/06 10:22:26;;;;;;;4.03;2.90;;;;;;;19.62;49.31;101155.19;5026120;28;20072;-76
2022/12/06 10:25:21;;;;;;;4.47;2.92;;;;;;;19.61;49.24;101148.97;5032024;28;20057;-76
2022/12/06 10:28:09;;;;;;;4.10;2.88;;;;;;;19.61;49.39;101150.78;5031596;28;20064;-76
2022/12/06 10:31:03;;;;;;;3.75;2.80;;;;;;;19.61;48.87;101151.66;5030989;28;20437;-76
2022/12/06 10:34:04;;;;;;;4.85;3.25;;;;;;;19.61;48.68;101142.72;5030923;28;20041;-76
2022/12/06 10:36:41;;;;;;;5.10;2.90;;;;;;;19.60;48.63;101141.84;5014998;28;20053;-76
2022/12/06 10:39:19;;;;;;;4.22;3.15;;;;;;;19.61;48.50;101140.03;5031240;28;20149;-76
2022/12/06 10:41:59;;;;;;;4.30;2.97;;;;;;;19.60;48.58;101138.31;5030835;28;20399;-76
2022/12/06 10:44:34;;;;;;;5.25;2.85;;;;;;;19.60;48.68;101125.72;5031447;28;20501;-76
2022/12/06 10:47:11;;;;;;;4.18;2.95;;;;;;;19.59;48.61;101134.75;5031891;28;20057;-76
2022/12/06 10:50:00;;;;;;;4.70;3.15;;;;;;;19.60;48.65;101136.47;5035145;28;20057;-79
2022/12/06 10:52:40;;;;;;;6.05;4.00;;;;;;;19.61;48.39;101129.28;5036720;28;20060;-86
2022/12/06 10:55:10;;;;;;;6.82;3.38;;;;;;;19.60;49.08;101125.72;5036284;28;20056;-76
2022/12/06 10:57:59;;;;;;;7.50;3.05;;;;;;;19.61;48.86;101129.28;5097597;28;20059;-75
2022/12/06 11:00:30;;;;;;;4.72;2.80;;;;;;;19.61;48.81;101130.16;5096766;28;20479;-74
2022/12/06 11:02:58;;;;;;;3.58;2.60;;;;;;;19.62;49.12;101125.66;5096110;28;20040;-74
2022/12/06 11:05:42;;;;;;;5.13;2.80;;;;;;;19.60;48.40;101125.72;5096707;28;20044;-74
2022/12/06 11:08:17;;;;;;;4.65;2.72;;;;;;;19.60;48.79;101128.41;5097623;28;20055;-74
2022/12/06 11:10:46;;;;;;;7.07;3.85;;;;;;;19.60;47.78;101114.13;5097188;28;20509;-74
2022/12/06 11:13:29;;;;;;;6.60;4.43;;;;;;;19.59;48.21;101120.50;5094972;28;20051;-74
2022/12/06 11:16:15;;;;;;;5.32;3.78;;;;;;;19.58;47.85;101103.53;5097009;28;20506;-74
2022/12/06 11:18:45;;;;;;;6.13;2.95;;;;;;;19.58;47.99;101105.38;5096905;28;20051;-74
2022/12/06 11:21:20;;;;;;;5.50;2.83;;;;;;;19.57;48.35;101096.47;5096155;28;20040;-74
2022/12/06 11:24:11;;;;;;;5.07;2.80;;;;;;;19.57;47.46;101096.47;5096987;28;20055;-74
2022/12/06 11:26:46;;;;;;;4.25;2.58;;;;;;;19.58;47.94;101094.63;5096747;28;20373;-74
2022/12/06 11:29:15;;;;;;;5.22;3.75;;;;;;;19.55;46.86;101084.97;5096383;28;20102;-75
2022/12/06 11:31:50;;;;;;;5.97;4.47;;;;;;;19.51;46.70;101087.06;5096269;28;20040;-74
2022/12/06 11:34:55;;;;;;;6.15;4.93;;;;;;;19.43;45.93;101085.97;5094480;28;20036;-75
2022/12/06 11:37:30;;;;;;;5.32;4.07;;;;;;;19.40;46.94;101078.16;5095620;28;20055;-74
2022/12/06 11:40:14;;;;;;;5.15;3.70;;;;;;;19.42;47.73;101078.91;5096711;28;20067;-74
2022/12/06 11:42:41;;;;;;;4.80;2.78;;;;;;;19.44;48.43;101079.63;5096196;28;20052;-74
2022/12/06 11:45:20;;;;;;;3.13;2.45;;;;;;;19.45;48.09;101082.22;5096701;28;20046;-74
2022/12/06 11:47:47;;;;;;;4.25;2.80;;;;;;;19.45;47.80;101073.31;5094553;28;20430;-74
2022/12/06 11:50:18;;;;;;;5.35;2.75;;;;;;;19.46;47.69;101073.16;5096259;28;20047;-74
2022/12/06 11:52:58;;;;;;;5.18;2.53;;;;;;;19.47;48.02;101066.81;5096705;28;20040;-74
2022/12/06 11:55:30;;;;;;;3.17;2.42;;;;;;;19.48;48.53;101068.50;5096186;28;20106;-74
2022/12/06 11:58:10;;;;;;;4.82;2.25;;;;;;;19.49;48.50;101069.38;5096620;28;20051;-74
2022/12/06 12:00:55;;;;;;;3.38;1.92;;;;;;;19.49;48.05;101066.69;5095584;28;20074;-75
2022/12/06 12:03:28;;;;;;;5.57;4.00;;;;;;;19.48;46.50;101054.22;5095589;28;20048;-76
2022/12/06 12:06:06;;;;;;;3.30;2.45;;;;;;;19.49;47.86;101051.44;5095603;28;20051;-75
2022/12/06 12:08:35;;;;;;;3.42;2.50;;;;;;;19.49;47.83;101053.28;5096624;28;20059;-75
2022/12/06 12:11:03;;;;;;;4.30;2.08;;;;;;;19.51;48.15;101053.97;5095650;28;20040;-75
2022/12/06 12:13:43;;;;;;;4.10;2.38;;;;;;;19.51;47.65;101059.34;5096055;28;20044;-75
2022/12/06 12:16:17;;;;;;;4.43;2.38;;;;;;;19.50;47.72;101053.13;5096080;28;20063;-75
2022/12/06 12:19:21;;;;;;;3.20;2.00;;;;;;;19.52;48.72;101044.94;5096247;28;20054;-75